Time;durP1;ratioP1;P1;durP2;ratioP2;P2;SDS_P1;SDS_P2;PMS_P1;PMS_P2;Temp;Humidity;BMP_temperature;BMP_pressure;BME280_temperature;BME280_humidity;BME280_pressure;Samples;Min_cycle;Max_cycle;Signal;HPM_P1;HPM_P2
2023/03/14 00:00:16;;;;;;;14.07;2.47;;;;;;;15.20;67.43;98854.66;5060394;28;20491;-64
2023/03/14 00:02:43;;;;;;;14.65;2.70;;;;;;;14.93;69.92;98864.41;5076489;28;20044;-63
2023/03/14 00:05:10;;;;;;;18.65;3.38;;;;;;;14.92;69.24;98859.25;5078943;28;20053;-64
2023/03/14 00:07:39;;;;;;;14.90;2.88;;;;;;;14.73;70.38;98863.13;5077379;28;20063;-64
2023/03/14 00:10:13;;;;;;;10.73;2.25;;;;;;;14.66;69.77;98835.34;5077460;28;20511;-64
2023/03/14 00:12:41;;;;;;;11.27;2.50;;;;;;;14.82;69.88;98846.16;5077740;28;20045;-64
2023/03/14 00:15:09;;;;;;;10.98;2.85;;;;;;;14.66;71.67;98846.44;5077759;28;20468;-63
2023/03/14 00:17:37;;;;;;;11.25;2.60;;;;;;;14.70;70.76;98860.31;5076827;28;20059;-64
2023/03/14 00:20:08;;;;;;;13.35;3.05;;;;;;;13.96;71.83;98856.88;5078912;28;20052;-63
2023/03/14 00:22:35;;;;;;;13.15;2.20;;;;;;;14.53;72.32;98851.50;5076463;28;20053;-63
2023/03/14 00:25:05;;;;;;;9.13;1.88;;;;;;;14.92;72.11;98837.88;5077284;28;20426;-64
2023/03/14 00:27:32;;;;;;;10.40;2.08;;;;;;;14.33;71.38;98852.13;5075553;28;20056;-64
2023/03/14 00:30:01;;;;;;;10.20;2.20;;;;;;;14.29;72.87;98842.97;5077364;28;20048;-64
2023/03/14 00:32:28;;;;;;;12.70;2.00;;;;;;;14.36;72.71;98837.50;5075111;28;20064;-64
2023/03/14 00:34:56;;;;;;;10.15;2.40;;;;;;;14.43;71.51;98843.09;5078364;28;20063;-64
2023/03/14 00:37:23;;;;;;;12.90;2.80;;;;;;;14.79;72.41;98844.13;5059126;28;20067;-64
2023/03/14 00:39:51;;;;;;;11.57;2.38;;;;;;;14.26;70.66;98835.44;5078462;28;20055;-62
2023/03/14 00:42:19;;;;;;;8.93;1.80;;;;;;;14.39;72.21;98833.97;5076944;28;20052;-65
2023/03/14 00:44:47;;;;;;;11.13;2.25;;;;;;;14.30;73.85;98825.19;5078430;28;20051;-63
2023/03/14 00:47:15;;;;;;;11.63;2.60;;;;;;;14.80;73.23;98816.03;5074835;28;20063;-63
2023/03/14 00:49:43;;;;;;;11.27;2.40;;;;;;;14.37;72.06;98823.25;5078014;28;20059;-63
2023/03/14 00:52:11;;;;;;;10.55;2.30;;;;;;;14.31;72.72;98822.03;5075585;28;20059;-63
2023/03/14 00:54:39;;;;;;;11.48;2.10;;;;;;;14.62;73.82;98828.97;5060654;28;20056;-62
2023/03/14 00:57:06;;;;;;;12.23;2.65;;;;;;;14.60;73.05;98823.84;5075188;28;20056;-63
2023/03/14 00:59:33;;;;;;;13.88;2.38;;;;;;;14.60;72.12;98840.47;5077116;28;20052;-64
2023/03/14 01:02:01;;;;;;;9.43;2.30;;;;;;;14.83;72.03;98840.22;5076336;28;20404;-64
2023/03/14 01:04:30;;;;;;;15.93;2.63;;;;;;;14.35;73.12;98833.13;5044257;28;20052;-63
2023/03/14 01:06:57;;;;;;;14.40;2.50;;;;;;;14.43;73.15;98829.25;5076233;28;20052;-63
2023/03/14 01:09:25;;;;;;;11.13;2.45;;;;;;;14.34;73.12;98828.78;5076449;28;20068;-63
2023/03/14 01:11:52;;;;;;;11.40;2.40;;;;;;;14.38;74.27;98827.63;5072334;28;20060;-63
2023/03/14 01:14:20;;;;;;;13.85;2.85;;;;;;;14.05;73.16;98830.47;5060856;28;20044;-63
2023/03/14 01:16:48;;;;;;;12.32;2.60;;;;;;;14.55;75.17;98832.50;5051529;28;20048;-63
2023/03/14 01:19:15;;;;;;;14.30;2.58;;;;;;;14.92;71.48;98823.22;5076522;28;20167;-64
2023/03/14 01:21:42;;;;;;;14.57;2.45;;;;;;;14.62;71.60;98821.47;5073533;28;20044;-63
2023/03/14 01:24:11;;;;;;;15.30;2.70;;;;;;;14.26;73.26;98819.59;5056603;28;20045;-64
2023/03/14 01:26:38;;;;;;;16.63;2.53;;;;;;;14.16;75.16;98817.53;5066777;28;20059;-63
2023/03/14 01:29:06;;;;;;;15.63;2.95;;;;;;;14.75;73.71;98832.25;5075760;28;20064;-63
2023/03/14 01:31:36;;;;;;;16.95;2.88;;;;;;;14.95;70.82;98825.22;5074811;28;20051;-62
2023/03/14 01:34:04;;;;;;;15.18;3.45;;;;;;;14.14;71.75;98830.19;5059353;28;20068;-63
2023/03/14 01:36:32;;;;;;;18.15;3.47;;;;;;;14.27;73.99;98831.50;5065809;28;20055;-64
2023/03/14 01:39:01;;;;;;;14.57;3.03;;;;;;;14.68;75.37;98825.47;5077400;28;20060;-63
2023/03/14 01:41:29;;;;;;;12.65;2.80;;;;;;;14.78;74.89;98828.69;5041481;28;20048;-62
2023/03/14 01:43:58;;;;;;;14.70;3.20;;;;;;;14.50;73.18;98819.03;5075807;28;20057;-63
2023/03/14 01:46:45;;;;;;;14.52;2.60;;;;;;;14.87;75.44;98821.59;5056913;28;20048;-63
2023/03/14 01:49:19;;;;;;;14.88;2.72;;;;;;;14.38;72.68;98822.06;5075809;28;20052;-63
2023/03/14 01:52:05;;;;;;;14.95;3.67;;;;;;;14.33;74.16;98824.44;5058792;28;20380;-63
2023/03/14 01:54:37;;;;;;;12.30;2.58;;;;;;;14.68;73.74;98828.22;5059441;28;20060;-63
2023/03/14 01:57:14;;;;;;;10.43;2.40;;;;;;;14.81;73.00;98825.94;5056633;28;20040;-63
2023/03/14 01:59:46;;;;;;;11.00;2.58;;;;;;;14.52;74.55;98838.81;5075314;28;20052;-63
2023/03/14 02:02:15;;;;;;;11.40;2.70;;;;;;;14.59;75.13;98832.53;5073669;28;20048;-63
2023/03/14 02:04:43;;;;;;;13.38;2.65;;;;;;;14.53;74.43;98831.28;5075426;28;20048;-63
2023/03/14 02:07:18;;;;;;;8.68;1.83;;;;;;;14.21;74.45;98825.47;5057500;28;20056;-63
2023/03/14 02:10:14;;;;;;;10.57;1.88;;;;;;;14.04;74.80;98831.66;5073862;28;20078;-63
2023/03/14 02:12:42;;;;;;;10.18;1.77;;;;;;;14.25;76.03;98837.38;5074192;28;20044;-63
2023/03/14 02:15:26;;;;;;;7.25;1.38;;;;;;;14.77;73.26;98843.75;5075753;28;20071;-64
2023/03/14 02:17:59;;;;;;;7.30;1.67;;;;;;;14.20;74.66;98845.25;5058903;28;20057;-63
2023/03/14 02:21:09;;;;;;;8.48;2.03;;;;;;;13.98;76.00;98846.25;5059258;28;20102;-63
2023/03/14 02:23:57;;;;;;;6.40;1.45;;;;;;;14.06;77.38;98842.34;5021691;28;20052;-63
2023/03/14 02:26:34;;;;;;;8.38;1.60;;;;;;;14.12;77.93;98829.75;5056263;28;20052;-63
2023/03/14 02:29:01;;;;;;;6.55;1.20;;;;;;;14.30;77.11;98833.47;5075411;28;20078;-63
2023/03/14 02:31:29;;;;;;;5.32;1.13;;;;;;;14.13;77.73;98832.13;5055507;28;20055;-63
2023/03/14 02:33:57;;;;;;;9.00;1.95;;;;;;;14.22;76.13;98829.84;5058466;28;20045;-63
2023/03/14 02:36:25;;;;;;;4.68;0.98;;;;;;;13.93;77.73;98824.44;5062463;28;20057;-64
2023/03/14 02:39:03;;;;;;;5.75;1.20;;;;;;;13.96;77.97;98827.25;5054895;28;20048;-63
2023/03/14 02:41:30;;;;;;;6.55;1.13;;;;;;;13.96;78.36;98820.91;5064380;28;20079;-63
2023/03/14 02:44:01;;;;;;;6.55;1.58;;;;;;;14.17;76.93;98819.13;5059237;28;20048;-63
2023/03/14 02:46:29;;;;;;;6.80;1.13;;;;;;;14.20;79.49;98823.91;5073866;28;20057;-63
2023/03/14 02:49:05;;;;;;;8.27;1.50;;;;;;;14.14;76.88;98824.63;5069641;28;20045;-63
2023/03/14 02:51:32;;;;;;;4.20;0.75;;;;;;;13.97;77.87;98815.00;5064801;28;20605;-64
2023/03/14 02:54:00;;;;;;;8.13;1.50;;;;;;;13.93;80.59;98813.38;5075283;28;20048;-63
2023/03/14 02:56:28;;;;;;;6.22;1.30;;;;;;;14.40;80.11;98818.94;5073607;28;20048;-64
2023/03/14 02:58:57;;;;;;;5.72;1.10;;;;;;;14.10;79.21;98816.31;5074915;28;20049;-63
2023/03/14 03:01:41;;;;;;;6.22;1.10;;;;;;;14.40;79.07;98816.19;5059063;28;20385;-63
2023/03/14 03:04:08;;;;;;;7.35;0.90;;;;;;;14.87;78.13;98823.59;5074859;28;20051;-64
2023/03/14 03:06:35;;;;;;;2.78;0.85;;;;;;;14.34;77.48;98826.81;5074836;28;20527;-63
2023/03/14 03:09:03;;;;;;;5.82;1.00;;;;;;;14.01;79.38;98818.59;5078101;28;20519;-63
2023/03/14 03:11:31;;;;;;;3.67;0.98;;;;;;;14.29;79.64;98826.38;5060234;28;20060;-63
2023/03/14 03:13:58;;;;;;;3.63;0.80;;;;;;;14.12;78.52;98829.75;5062540;28;20056;-63
2023/03/14 03:16:27;;;;;;;6.90;1.27;;;;;;;14.42;80.36;98824.88;5060214;28;20053;-64
2023/03/14 03:18:58;;;;;;;3.20;0.73;;;;;;;14.21;79.06;98830.25;5078058;28;20049;-63
2023/03/14 03:21:25;;;;;;;2.40;0.73;;;;;;;14.12;80.48;98830.53;5077247;28;20503;-63
2023/03/14 03:23:53;;;;;;;5.40;1.23;;;;;;;14.23;81.56;98830.63;5080021;28;20495;-63
2023/03/14 03:26:20;;;;;;;4.50;1.02;;;;;;;14.08;79.88;98828.94;5072494;28;20063;-64
2023/03/14 03:28:50;;;;;;;4.72;0.95;;;;;;;13.91;81.33;98832.34;5061927;28;20071;-64
2023/03/14 03:31:18;;;;;;;4.45;0.80;;;;;;;13.87;82.61;98837.03;5078303;28;20048;-63
2023/03/14 03:33:46;;;;;;;3.90;0.70;;;;;;;13.59;83.70;98840.31;5077959;28;20064;-63
2023/03/14 03:36:14;;;;;;;3.20;0.82;;;;;;;14.20;82.72;98850.78;5076936;28;20048;-64
2023/03/14 03:38:41;;;;;;;3.92;0.60;;;;;;;14.33;80.44;98852.13;5045524;28;20056;-64
2023/03/14 03:41:09;;;;;;;4.43;1.08;;;;;;;13.89;82.01;98852.09;5047066;28;20513;-64
2023/03/14 03:43:37;;;;;;;3.33;0.65;;;;;;;13.79;82.47;98849.22;5079536;28;20059;-63
2023/03/14 03:46:06;;;;;;;2.42;0.63;;;;;;;14.11;82.53;98847.53;5075291;28;20049;-63
2023/03/14 03:48:34;;;;;;;2.95;0.60;;;;;;;13.64;81.91;98858.53;5077841;28;20494;-64
2023/03/14 03:51:04;;;;;;;;;;;;;;;13.77;84.48;98860.66;5076960;28;20051;-63
2023/03/14 03:53:32;;;;;;;4.93;0.70;;;;;;;14.13;82.55;98850.72;5060959;28;20268;-64
2023/03/14 03:56:08;;;;;;;4.13;0.60;;;;;;;14.51;80.94;98853.03;5076736;28;20135;-63
2023/03/14 03:58:38;;;;;;;3.33;0.60;;;;;;;14.46;81.00;98853.41;5061458;28;20048;-63
2023/03/14 04:01:06;;;;;;;;;;;;;;;14.18;81.58;98853.13;5060382;28;20372;-64
2023/03/14 04:03:35;;;;;;;2.17;0.70;;;;;;;14.04;83.17;98861.31;5077823;28;19943;-64
2023/03/14 04:06:05;;;;;;;2.33;0.50;;;;;;;14.89;80.03;98860.03;5077702;28;20044;-63
2023/03/14 04:08:36;;;;;;;4.18;0.77;;;;;;;14.71;79.75;98862.69;5077808;28;20048;-63
2023/03/14 04:11:03;;;;;;;3.60;0.57;;;;;;;14.41;79.60;98867.63;5059746;28;20052;-65
2023/03/14 04:13:57;;;;;;;1.83;0.43;;;;;;;13.94;81.17;98870.31;5070696;28;20060;-63
2023/03/14 04:16:25;;;;;;;2.47;0.70;;;;;;;14.71;80.21;98872.97;5076302;28;20053;-64
2023/03/14 04:18:58;;;;;;;2.15;0.60;;;;;;;13.97;79.29;98878.66;5070850;28;20052;-63
2023/03/14 04:21:26;;;;;;;1.70;0.50;;;;;;;14.04;80.29;98884.25;5073739;28;20044;-63
2023/03/14 04:23:56;;;;;;;;;;;;;;;13.87;83.38;98890.41;5075330;28;20056;-64
2023/03/14 04:26:26;;;;;;;2.08;0.40;;;;;;;13.71;84.58;98894.56;5075667;28;19920;-64
2023/03/14 04:28:54;;;;;;;2.85;0.57;;;;;;;13.70;82.88;98901.28;5077352;28;20071;-64
2023/03/14 04:31:22;;;;;;;2.00;0.35;;;;;;;13.88;86.14;98907.81;5075727;28;20408;-64
2023/03/14 04:33:51;;;;;;;1.10;0.30;;;;;;;13.44;84.31;98908.47;5077492;28;20059;-63
2023/03/14 04:36:25;;;;;;;2.22;0.40;;;;;;;13.39;86.64;98910.78;5076032;28;20052;-65
2023/03/14 04:38:53;;;;;;;1.20;0.40;;;;;;;13.20;87.37;98919.22;5077279;28;20052;-64
2023/03/14 04:41:21;;;;;;;1.67;0.45;;;;;;;13.67;88.55;98929.72;5073478;28;20135;-64
2023/03/14 04:43:48;;;;;;;5.55;0.70;;;;;;;13.75;86.76;98932.19;5077386;28;20052;-64
2023/03/14 04:46:16;;;;;;;1.95;0.47;;;;;;;13.71;86.41;98953.47;5065132;28;20052;-65
2023/03/14 04:48:44;;;;;;;1.67;0.30;;;;;;;13.26;87.95;98943.41;5071910;28;20049;-64
2023/03/14 04:51:11;;;;;;;3.00;0.60;;;;;;;12.94;85.65;98996.56;5071642;28;20052;-63
2023/03/14 04:53:42;;;;;;;2.13;0.60;;;;;;;12.10;85.63;99017.97;5076894;28;20045;-64
2023/03/14 04:56:12;;;;;;;4.15;0.70;;;;;;;11.86;88.82;99034.81;5058827;28;20260;-63
2023/03/14 04:58:42;;;;;;;2.70;0.70;;;;;;;12.04;89.44;99042.31;5076999;28;20052;-64
2023/03/14 05:01:10;;;;;;;6.93;1.17;;;;;;;11.25;90.01;99057.47;5075055;28;20061;-65
2023/03/14 05:04:01;;;;;;;9.45;2.00;;;;;;;10.87;89.84;99098.63;5078043;28;20052;-63
2023/03/14 05:06:54;;;;;;;10.73;1.58;;;;;;;11.07;86.92;99094.81;5075269;28;20040;-64
2023/03/14 05:09:46;;;;;;;8.80;1.80;;;;;;;11.39;83.51;99103.84;5077208;28;20411;-64
2023/03/14 05:12:31;;;;;;;15.85;2.33;;;;;;;10.78;84.74;99097.19;5076344;28;20048;-64
2023/03/14 05:15:18;;;;;;;9.43;1.92;;;;;;;11.02;84.97;99116.31;5074705;28;20120;-64
2023/03/14 05:18:21;;;;;;;13.50;2.13;;;;;;;10.23;79.67;99133.03;5052639;28;20115;-63
2023/03/14 05:20:57;;;;;;;15.70;2.30;;;;;;;10.48;81.56;99134.56;5061212;28;20048;-63
2023/03/14 05:23:42;;;;;;;10.07;2.33;;;;;;;10.71;80.32;99160.34;5056844;28;20045;-63
2023/03/14 05:26:30;;;;;;;14.27;2.60;;;;;;;9.94;82.05;99164.34;5066302;28;20044;-65
2023/03/14 05:29:17;;;;;;;17.73;3.50;;;;;;;10.26;82.69;99168.09;5075567;28;20071;-64
2023/03/14 05:31:56;;;;;;;11.70;2.13;;;;;;;10.92;87.93;99160.91;5073680;28;20064;-64
2023/03/14 05:34:37;;;;;;;11.45;2.08;;;;;;;11.65;82.23;99181.31;5064613;28;20060;-63
2023/03/14 05:37:25;;;;;;;15.10;3.25;;;;;;;11.29;80.79;99189.84;5054516;28;20522;-64
2023/03/14 05:40:06;;;;;;;16.95;2.80;;;;;;;11.18;75.59;99203.34;5076370;28;20040;-63
2023/03/14 05:42:56;;;;;;;14.38;2.83;;;;;;;10.79;79.82;99218.03;5060162;28;20056;-64
2023/03/14 05:45:37;;;;;;;17.48;2.55;;;;;;;9.83;78.63;99221.00;5073407;28;20065;-65
2023/03/14 05:48:21;;;;;;;15.60;2.72;;;;;;;10.27;81.52;99231.03;5053151;28;20055;-63
2023/03/14 05:51:09;;;;;;;15.60;3.05;;;;;;;11.17;81.15;99243.09;5072932;28;20051;-64
2023/03/14 05:53:56;;;;;;;17.50;3.55;;;;;;;10.30;75.57;99263.38;5046011;28;20063;-63
2023/03/14 05:56:41;;;;;;;13.57;3.38;;;;;;;11.10;83.11;99277.94;5041885;28;20053;-63
2023/03/14 05:59:32;;;;;;;16.80;2.95;;;;;;;10.05;72.75;99290.09;5066213;28;20067;-64
2023/03/14 06:02:05;;;;;;;13.85;2.53;;;;;;;10.48;77.60;99300.50;5074413;28;20153;-64
2023/03/14 06:04:43;;;;;;;10.70;2.40;;;;;;;10.02;73.14;99326.53;5075977;28;20368;-64
2023/03/14 06:07:10;;;;;;;14.07;2.65;;;;;;;10.80;74.74;99321.53;5074221;28;20056;-64
2023/03/14 06:09:39;;;;;;;16.75;2.45;;;;;;;10.63;77.15;99337.53;5076319;28;20505;-65
2023/03/14 06:12:06;;;;;;;18.42;2.95;;;;;;;9.91;68.82;99352.06;5074265;28;20059;-63
2023/03/14 06:14:39;;;;;;;15.63;2.67;;;;;;;10.72;68.48;99351.97;5059733;28;20052;-64
2023/03/14 06:17:08;;;;;;;13.63;2.80;;;;;;;9.85;69.81;99357.00;5053419;28;20048;-63
2023/03/14 06:19:42;;;;;;;12.68;2.55;;;;;;;10.37;68.74;99379.22;5059268;28;20504;-63
2023/03/14 06:22:12;;;;;;;18.45;2.75;;;;;;;9.63;69.18;99390.41;5070928;28;20063;-63
2023/03/14 06:24:40;;;;;;;20.23;3.65;;;;;;;9.71;73.03;99405.22;5075263;28;20045;-63
2023/03/14 06:27:07;;;;;;;17.55;3.85;;;;;;;10.64;74.48;99416.22;5073878;28;20048;-63
2023/03/14 06:29:35;;;;;;;14.43;2.72;;;;;;;10.15;71.40;99420.91;5075388;28;20048;-62
2023/03/14 06:32:04;;;;;;;12.55;2.55;;;;;;;10.13;72.24;99434.19;5073055;28;20053;-63
2023/03/14 06:34:31;;;;;;;17.90;3.60;;;;;;;10.20;73.15;99439.94;5065832;28;20080;-63
2023/03/14 06:36:58;;;;;;;21.23;3.28;;;;;;;10.33;67.52;99441.59;5074011;28;20048;-63
2023/03/14 06:39:26;;;;;;;17.77;3.10;;;;;;;10.01;70.21;99454.22;5081521;28;20467;-64
2023/03/14 06:42:02;;;;;;;16.90;2.85;;;;;;;10.00;68.32;99471.06;5055214;28;20059;-64
2023/03/14 06:44:30;;;;;;;20.00;3.47;;;;;;;10.22;73.22;99483.66;5075348;28;20103;-63
2023/03/14 06:46:57;;;;;;;12.43;2.80;;;;;;;10.32;72.13;99486.75;5073115;28;20492;-63
2023/03/14 06:49:24;;;;;;;18.60;3.58;;;;;;;10.38;71.35;99493.66;5071919;28;20487;-64
2023/03/14 06:51:54;;;;;;;25.15;3.63;;;;;;;10.93;69.93;99502.16;5067202;28;20052;-64
2023/03/14 06:54:21;;;;;;;22.48;3.65;;;;;;;10.71;67.51;99519.16;5078901;28;20764;-64
2023/03/14 06:56:49;;;;;;;14.88;2.90;;;;;;;9.12;67.89;99532.94;5066762;28;20056;-63
2023/03/14 06:59:16;;;;;;;17.92;3.25;;;;;;;10.07;78.63;99535.41;5074287;28;20045;-64
2023/03/14 07:01:48;;;;;;;20.38;4.22;;;;;;;9.45;67.68;99536.59;5071940;28;20363;-64
2023/03/14 07:04:15;;;;;;;20.65;4.13;;;;;;;10.43;83.20;99539.41;5072840;28;20389;-63
2023/03/14 07:06:47;;;;;;;17.38;3.25;;;;;;;9.86;67.10;99547.56;5054184;28;20071;-64
2023/03/14 07:09:16;;;;;;;15.68;3.50;;;;;;;10.17;70.84;99558.94;5073947;28;20048;-63
2023/03/14 07:11:49;;;;;;;15.27;3.25;;;;;;;10.04;72.94;99571.03;5055652;28;20056;-62
2023/03/14 07:14:18;;;;;;;19.77;3.75;;;;;;;9.92;70.44;99574.53;5069130;28;20060;-64
2023/03/14 07:16:47;;;;;;;18.63;3.28;;;;;;;10.13;73.24;99580.84;5078936;28;20045;-63
2023/03/14 07:19:14;;;;;;;19.77;3.22;;;;;;;10.51;69.30;99585.34;5056233;28;20064;-63
2023/03/14 07:21:41;;;;;;;19.08;2.65;;;;;;;9.58;64.98;99599.53;5065891;28;20045;-64
2023/03/14 07:24:12;;;;;;;12.15;2.70;;;;;;;9.20;67.16;99598.81;5083975;28;20430;-63
2023/03/14 07:26:40;;;;;;;23.02;3.08;;;;;;;9.39;69.76;99607.44;5071842;28;20048;-62
2023/03/14 07:29:07;;;;;;;19.55;3.08;;;;;;;9.84;65.59;99622.16;5054073;28;20049;-64
2023/03/14 07:31:34;;;;;;;13.23;2.70;;;;;;;10.04;66.69;99632.34;5058517;28;20045;-63
2023/03/14 07:34:02;;;;;;;20.50;2.97;;;;;;;9.54;70.84;99634.34;5054060;28;20068;-62
2023/03/14 07:36:34;;;;;;;21.52;3.17;;;;;;;9.27;65.76;99645.81;5064070;28;20076;-64
2023/03/14 07:39:04;;;;;;;18.13;2.97;;;;;;;11.08;79.81;99647.53;5063789;28;20067;-68
2023/03/14 07:41:40;;;;;;;20.85;3.47;;;;;;;10.11;61.26;99660.16;5048965;28;20055;-66
2023/03/14 07:44:26;;;;;;;20.00;2.97;;;;;;;9.46;64.93;99675.63;5068888;28;20082;-64
2023/03/14 07:46:53;;;;;;;21.27;3.63;;;;;;;9.73;65.25;99681.44;5062522;28;20051;-67
2023/03/14 07:49:21;;;;;;;24.10;4.10;;;;;;;10.10;64.06;99679.75;5077534;28;20049;-67
2023/03/14 07:51:48;;;;;;;19.75;3.05;;;;;;;9.79;63.55;99690.31;5062687;28;20056;-67
2023/03/14 07:54:16;;;;;;;17.35;3.30;;;;;;;9.81;61.40;99694.34;5057776;28;20075;-68
2023/03/14 07:56:46;;;;;;;;;;;;;;;9.48;62.80;99696.16;5067906;28;20048;-67
2023/03/14 07:59:13;;;;;;;22.23;3.15;;;;;;;9.24;63.56;99726.13;5061586;28;19927;-68
2023/03/14 08:01:40;;;;;;;21.77;2.60;;;;;;;9.85;63.91;99716.50;5060486;28;20516;-68
2023/03/14 08:04:08;;;;;;;19.90;3.20;;;;;;;9.87;64.78;99720.50;5059756;28;20593;-66
2023/03/14 08:06:36;;;;;;;16.88;2.80;;;;;;;10.00;63.69;99719.47;5066641;28;20036;-65
2023/03/14 08:09:04;;;;;;;22.67;3.83;;;;;;;9.72;62.55;99737.59;5059924;28;20045;-65
2023/03/14 08:11:31;;;;;;;16.08;2.78;;;;;;;9.30;63.81;99738.56;5049401;28;20400;-66
2023/03/14 08:13:59;;;;;;;16.60;2.80;;;;;;;9.42;64.80;99751.59;5076571;28;20048;-68
2023/03/14 08:16:26;;;;;;;18.27;3.53;;;;;;;9.21;64.85;99757.00;5073548;28;20049;-66
2023/03/14 08:18:53;;;;;;;21.15;2.80;;;;;;;9.37;65.64;99749.03;5066939;28;20040;-66
2023/03/14 08:21:20;;;;;;;19.60;3.35;;;;;;;9.35;64.91;99756.81;5072021;28;20057;-66
2023/03/14 08:23:48;;;;;;;17.40;3.30;;;;;;;9.94;65.62;99762.03;5076135;28;20039;-67
2023/03/14 08:26:15;;;;;;;22.02;4.10;;;;;;;9.55;64.52;99772.59;5073429;28;20510;-68
2023/03/14 08:28:42;;;;;;;23.27;3.75;;;;;;;9.67;64.07;99783.69;5076638;28;20419;-67
2023/03/14 08:31:10;;;;;;;20.50;3.80;;;;;;;9.99;65.93;99777.53;5068087;28;20057;-66
2023/03/14 08:33:37;;;;;;;20.42;2.92;;;;;;;10.16;65.54;99777.50;5069773;28;20044;-66
2023/03/14 08:36:05;;;;;;;26.40;4.35;;;;;;;10.24;63.93;99790.38;5071424;28;20048;-69
2023/03/14 08:38:32;;;;;;;23.88;3.05;;;;;;;9.56;65.18;99791.50;5068792;28;20056;-66
2023/03/14 08:41:01;;;;;;;17.70;2.88;;;;;;;9.82;64.98;99794.13;5074089;28;20518;-67
2023/03/14 08:43:29;;;;;;;16.23;3.38;;;;;;;9.59;66.06;99806.56;5040497;28;20052;-66
2023/03/14 08:46:00;;;;;;;18.23;3.00;;;;;;;9.46;65.89;99804.78;5070451;28;20380;-65
2023/03/14 08:48:29;;;;;;;21.08;3.30;;;;;;;10.03;66.72;99804.06;5062263;28;20522;-68
2023/03/14 08:51:07;;;;;;;21.33;3.20;;;;;;;10.03;65.32;99804.06;5065504;28;20475;-68
2023/03/14 08:53:35;;;;;;;20.00;2.40;;;;;;;10.06;65.14;99789.66;5072353;28;20495;-67
2023/03/14 08:56:05;;;;;;;19.45;3.47;;;;;;;10.57;63.87;99809.75;5066298;28;20423;-68
2023/03/14 08:58:32;;;;;;;;;;;;;;;10.74;65.48;99810.41;5063201;28;20067;-68
2023/03/14 09:01:00;;;;;;;19.95;3.83;;;;;;;10.77;63.76;99828.22;5066871;28;19927;-68
2023/03/14 09:03:28;;;;;;;19.23;3.88;;;;;;;10.76;64.17;99826.59;5063117;28;20056;-70
2023/03/14 09:05:55;;;;;;;17.23;2.42;;;;;;;11.15;65.79;99817.84;5064580;28;20052;-70
2023/03/14 09:08:23;;;;;;;19.52;3.42;;;;;;;11.34;63.59;99841.00;5076475;28;20527;-69
2023/03/14 09:10:50;;;;;;;18.25;3.15;;;;;;;11.11;62.48;99844.47;5070697;28;20063;-70
2023/03/14 09:13:17;;;;;;;21.23;2.60;;;;;;;11.40;62.22;99841.59;5024229;28;20056;-69
2023/03/14 09:15:44;;;;;;;15.10;2.65;;;;;;;11.28;60.97;99839.59;5080054;28;20052;-70
2023/03/14 09:18:12;;;;;;;21.95;2.90;;;;;;;11.30;61.60;99842.81;5064605;28;20056;-70
2023/03/14 09:20:40;;;;;;;19.20;2.83;;;;;;;11.78;63.43;99855.16;5061296;28;20059;-71
2023/03/14 09:23:07;;;;;;;14.63;2.53;;;;;;;10.96;62.15;99861.63;5030513;28;20504;-72
2023/03/14 09:25:34;;;;;;;16.48;2.50;;;;;;;10.91;70.19;99864.59;5061123;28;20052;-70
2023/03/14 09:28:02;;;;;;;12.60;2.40;;;;;;;10.29;61.60;99881.00;5037608;28;20052;-66
2023/03/14 09:30:29;;;;;;;17.60;2.92;;;;;;;10.05;62.85;99880.78;5055636;28;20060;-68
2023/03/14 09:32:57;;;;;;;14.75;1.95;;;;;;;10.37;62.37;99902.19;5071391;28;20040;-68
2023/03/14 09:35:25;;;;;;;17.67;2.30;;;;;;;10.38;62.12;99900.22;5064117;28;20048;-67
2023/03/14 09:37:52;;;;;;;21.52;3.08;;;;;;;10.26;64.39;99938.66;5054721;28;20065;-70
2023/03/14 09:40:20;;;;;;;8.30;1.85;;;;;;;9.32;67.12;99960.81;5062710;28;20060;-67
2023/03/14 09:42:51;;;;;;;6.30;1.35;;;;;;;8.35;72.94;99991.47;5058723;28;20041;-68
2023/03/14 09:45:26;;;;;;;5.82;1.30;;;;;;;7.89;77.76;99965.22;5061951;28;20053;-66
2023/03/14 09:47:55;;;;;;;6.20;1.40;;;;;;;8.16;77.24;99958.75;5069951;28;20056;-67
2023/03/14 09:50:31;;;;;;;10.55;1.77;;;;;;;8.60;75.81;99977.03;5054811;28;20048;-67
2023/03/14 09:53:02;;;;;;;5.53;1.33;;;;;;;9.13;75.43;99958.41;5066208;28;20052;-68
2023/03/14 09:55:31;;;;;;;12.50;2.20;;;;;;;9.56;72.58;99969.38;5075582;28;20053;-68
2023/03/14 09:58:05;;;;;;;10.43;1.55;;;;;;;9.77;68.29;99992.34;5073516;28;20052;-69
2023/03/14 10:00:33;;;;;;;8.75;1.30;;;;;;;9.44;67.69;99980.22;5061010;28;20491;-68
2023/03/14 10:03:20;;;;;;;11.25;1.20;;;;;;;8.54;72.02;100061.44;5073435;28;20044;-69
2023/03/14 10:05:47;;;;;;;8.30;1.33;;;;;;;8.29;75.55;100042.94;5057161;28;20044;-65
2023/03/14 10:08:15;;;;;;;8.45;1.73;;;;;;;7.25;77.23;100030.66;5052824;28;20148;-67
2023/03/14 10:10:42;;;;;;;4.85;0.80;;;;;;;7.47;77.32;100082.75;5054513;28;20052;-65
2023/03/14 10:13:09;;;;;;;7.88;1.42;;;;;;;7.60;76.93;100063.53;5062361;28;20059;-64
2023/03/14 10:15:37;;;;;;;15.30;1.60;;;;;;;7.36;79.10;100086.81;5057467;28;20060;-65
2023/03/14 10:18:12;;;;;;;6.15;1.20;;;;;;;7.90;81.09;100051.84;5041745;28;20124;-65
2023/03/14 10:20:44;;;;;;;12.30;1.60;;;;;;;7.74;77.50;100052.53;5056729;28;20051;-64
2023/03/14 10:23:12;;;;;;;11.25;2.00;;;;;;;7.74;76.95;100041.56;5063634;28;20384;-64
2023/03/14 10:25:45;;;;;;;9.80;1.77;;;;;;;8.21;75.07;100059.31;5040266;28;20056;-64
2023/03/14 10:28:42;;;;;;;16.98;2.28;;;;;;;8.24;74.50;100051.28;5063115;28;20498;-65
2023/03/14 10:31:09;;;;;;;12.93;1.70;;;;;;;8.24;73.52;100067.75;5045008;28;20525;-66
2023/03/14 10:33:38;;;;;;;12.77;2.47;;;;;;;8.50;73.64;100067.88;5057504;28;20053;-65
2023/03/14 10:36:19;;;;;;;14.35;2.10;;;;;;;8.54;72.66;100068.88;5059272;28;20041;-65
2023/03/14 10:38:47;;;;;;;14.30;2.30;;;;;;;8.80;70.54;100073.34;5046787;28;20060;-63
2023/03/14 10:41:26;;;;;;;16.15;2.38;;;;;;;8.90;70.89;100075.00;5057827;28;20411;-65
2023/03/14 10:43:57;;;;;;;12.77;2.42;;;;;;;9.01;70.54;100088.13;5059354;28;20053;-65
2023/03/14 10:46:26;;;;;;;11.63;1.90;;;;;;;9.08;71.47;100066.50;5069373;28;20059;-65
2023/03/14 10:49:28;;;;;;;10.50;2.10;;;;;;;9.01;67.96;100093.63;5071043;28;20045;-65
2023/03/14 10:51:55;;;;;;;13.02;2.15;;;;;;;9.18;69.72;100105.78;5057183;28;20385;-66
2023/03/14 10:54:25;;;;;;;9.85;1.50;;;;;;;8.87;69.86;100175.31;5064969;28;20060;-65
2023/03/14 10:56:57;;;;;;;9.52;1.50;;;;;;;8.20;70.76;100167.41;5059227;28;20045;-65
2023/03/14 10:59:28;;;;;;;8.80;1.83;;;;;;;8.22;71.48;100119.34;5059022;28;20064;-66
2023/03/14 11:01:59;;;;;;;10.45;1.55;;;;;;;8.36;69.97;100127.53;5040230;28;20060;-66
2023/03/14 11:04:42;;;;;;;14.45;2.42;;;;;;;8.64;68.46;100107.03;5056209;28;20044;-66
2023/03/14 11:07:29;;;;;;;18.10;1.80;;;;;;;8.74;64.59;100126.78;5064499;28;20057;-65
2023/03/14 11:10:24;;;;;;;14.52;2.40;;;;;;;8.96;66.87;100134.97;5056978;28;20048;-66
2023/03/14 11:13:11;;;;;;;8.85;1.80;;;;;;;8.86;64.87;100126.19;5062314;28;20419;-66
2023/03/14 11:15:41;;;;;;;12.20;1.77;;;;;;;8.93;63.56;100132.84;5071838;28;20052;-67
2023/03/14 11:18:27;;;;;;;;;;;;;;;9.19;62.04;100137.66;5076626;28;20064;-66
2023/03/14 11:21:04;;;;;;;9.93;2.90;;;;;;;9.23;60.12;100138.63;5069138;28;20481;-66
2023/03/14 11:24:02;;;;;;;10.20;1.92;;;;;;;9.46;59.38;100127.22;5062301;28;20056;-66
2023/03/14 11:26:33;;;;;;;15.02;2.13;;;;;;;9.62;60.83;100139.38;5047194;28;20049;-66
2023/03/14 11:29:21;;;;;;;11.82;2.33;;;;;;;9.70;57.85;100137.75;5068098;28;20048;-66
2023/03/14 11:31:49;;;;;;;11.23;1.85;;;;;;;10.18;58.73;100138.47;5067814;28;20052;-66
2023/03/14 11:34:27;;;;;;;10.90;1.55;;;;;;;10.09;55.38;100146.72;5066233;28;20063;-67
2023/03/14 11:37:05;;;;;;;12.70;3.08;;;;;;;10.16;55.91;100149.78;5044424;28;20049;-67
2023/03/14 11:39:39;;;;;;;15.82;4.50;;;;;;;10.07;54.14;100140.72;5058352;28;20067;-66
2023/03/14 11:42:12;;;;;;;10.77;2.55;;;;;;;10.01;50.42;100130.16;5061595;28;20068;-66
2023/03/14 11:44:40;;;;;;;13.65;2.72;;;;;;;9.97;50.03;100140.22;5057790;28;20079;-65
2023/03/14 11:47:10;;;;;;;11.40;2.20;;;;;;;10.18;50.32;100133.75;5063497;28;20051;-67
2023/03/14 11:50:04;;;;;;;11.45;2.58;;;;;;;10.21;49.86;100146.06;5058312;28;20041;-67
2023/03/14 11:52:35;;;;;;;11.35;2.28;;;;;;;10.55;48.48;100148.78;5047196;28;20513;-65